Mexico V — XCKR — position and weather

sailwx.info

Track history (hours):
 
Tides and Currents Weather Stations Pressure Air Temp Water Temp Dewpoint Dewpoint Depression Visibility Wind Speed Wind Dir Waves Ship Positions

Mexico V

Last reported at 2015-Jun-30 17:33 UTC. Time now 2015-Jul-01 06:33 UTC.
Position N 20°32' W 086°58'.

Length 40 m; draft 1.5 m.

Type: Ship. MMSI: 345110005.

Date/timePositionNaut miles runAvg speedWind from/ knotsBaromVisibWave heightAir tempDewpointWater temp
2015-Jun-30 17:33N 20°32' W 086°58'3 0.6
2015-Jun-30 12:33N 20°29' W 086°59'2 2.3
2015-Jun-30 11:33N 20°31' W 086°57'0 0.0
2015-Jun-29 21:33N 20°31' W 086°57'3 2.8
2015-Jun-29 20:34N 20°33' W 086°59'1 0.9
2015-Jun-29 19:20N 20°34' W 086°60'1 0.7
2015-Jun-29 18:33N 20°33' W 086°60'0 0.4
2015-Jun-29 17:22N 20°33' W 086°59'1 1.2
2015-Jun-29 16:34N 20°34' W 086°60'4 1.4
2015-Jun-29 13:33N 20°30' W 086°57'0 0.0
2015-Jun-29 12:33N 20°30' W 086°57'0 0.3
2015-Jun-29 11:33N 20°31' W 086°57'0 0.0
2015-Jun-29 04:08N 20°31' W 086°57'3 4.8
2015-Jun-29 03:33N 20°33' W 086°59'1 0.7
2015-Jun-29 02:11N 20°34' W 086°60'4 5.9
2015-Jun-29 01:33N 20°31' W 086°57'2 1.9
2015-Jun-29 00:34N 20°32' W 086°58'1 0.9
2015-Jun-28 23:18N 20°33' W 086°59'2 2.1
2015-Jun-28 22:34N 20°32' W 086°58'4 3.0
2015-Jun-28 21:22N 20°34' W 087°01'5 6.0
2015-Jun-28 20:33N 20°31' W 086°57'0 0.0
2015-Jun-28 18:23N 20°31' W 086°57'3 3.3
2015-Jun-28 17:34N 20°33' W 086°59'0 0.4
2015-Jun-28 16:18N 20°33' W 086°59'3 4.2
2015-Jun-28 15:33N 20°31' W 086°57'0 0.0
2015-Jun-28 14:33N 20°31' W 086°57'0 0.1
2015-Jun-28 13:34N 20°31' W 086°57'3 2.5
2015-Jun-28 12:19N 20°33' W 086°59'3 4.2
2015-Jun-28 11:33N 20°31' W 086°57'1 0.1
2015-Jun-28 01:33N 20°31' W 086°58'2 1.9
2015-Jun-28 00:20N 20°33' W 086°60'3 4.0
2015-Jun-27 23:33N 20°31' W 086°57'0 0.4
2015-Jun-27 22:33N 20°30' W 086°57'0 0.0
2015-Jun-27 19:33N 20°30' W 086°57'4 1.9
2015-Jun-27 17:26N 20°34' W 086°60'1 1.4
2015-Jun-27 16:34N 20°33' W 086°59'1 0.6
2015-Jun-27 15:19N 20°34' W 086°59'4 4.7
2015-Jun-27 14:33N 20°31' W 086°57'0 0.1
2015-Jun-27 13:33N 20°31' W 086°57'0 0.2
2015-Jun-27 12:33N 20°31' W 086°57'2 0.2
2015-Jun-27 03:33N 20°32' W 086°58'2 1.5
2015-Jun-27 02:17N 20°33' W 086°59'4 4.8
2015-Jun-27 01:33N 20°31' W 086°57'0 0.1
2015-Jun-27 00:33N 20°31' W 086°57'0 0.0
2015-Jun-26 23:33N 20°31' W 086°57'1 0.5
2015-Jun-26 22:33N 20°31' W 086°57'1 1.0
2015-Jun-26 21:09N 20°32' W 086°58'2 3.2
2015-Jun-26 20:33N 20°31' W 086°57'1 1.4
2015-Jun-26 19:34N 20°32' W 086°58'1 0.8
2015-Jun-26 18:18N 20°32' W 086°59'2 3.2
2015-Jun-26 17:33N 20°31' W 086°57'0 0.0
2015-Jun-26 15:33N 20°31' W 086°57'0 0.1
2015-Jun-26 14:33N 20°31' W 086°57'0 0.2
2015-Jun-26 13:34N 20°31' W 086°57'2 1.4
2015-Jun-26 12:13N 20°32' W 086°59'2 3.1
2015-Jun-26 11:33N 20°31' W 086°57'0 0.0
2015-Jun-26 00:20N 20°31' W 086°57'2 2.6
2015-Jun-25 23:34N 20°32' W 086°59'0 0.3
2015-Jun-25 22:16N 20°32' W 086°59'2 2.2
2015-Jun-25 21:15N 20°31' W 086°57'0 0.1
2015-Jun-25 20:33N 20°31' W 086°57'0 0.0
2015-Jun-25 19:33N 20°31' W 086°57'0 0.3
2015-Jun-25 18:34N 20°31' W 086°57'2 1.2
2015-Jun-25 17:12N 20°32' W 086°58'0 0.3
2015-Jun-25 16:33N 20°32' W 086°58'1 0.5
2015-Jun-25 15:13N 20°33' W 086°59'1 1.1
2015-Jun-25 14:33N 20°32' W 086°58'0 0.2
2015-Jun-25 13:14N 20°32' W 086°59'2 2.9
2015-Jun-25 12:34N 20°31' W 086°57'2 1.4
2015-Jun-25 11:10N 20°32' W 086°58'2 3.2
2015-Jun-25 10:33N 20°31' W 086°57'2 0.3
2015-Jun-25 03:34N 20°32' W 086°58'1 1.0
2015-Jun-25 02:18N 20°33' W 086°59'3 4.1
2015-Jun-25 01:33N 20°31' W 086°57'2 1.9
2015-Jun-25 00:33N 20°32' W 086°58'0 0.3
2015-Jun-24 23:18N 20°33' W 086°59'2 3.1
2015-Jun-24 22:33N 20°31' W 086°57'0 0.0
2015-Jun-24 21:33N 20°31' W 086°57'0 0.0
2015-Jun-24 18:17N 20°31' W 086°57'1 0.8
2015-Jun-24 17:34N 20°31' W 086°58'1 1.0
2015-Jun-24 16:13N 20°32' W 086°58'2 1.9
2015-Jun-24 15:10N 20°31' W 086°57'0 0.1
2015-Jun-24 14:33N 20°31' W 086°57'2 1.6
2015-Jun-24 13:33N 20°32' W 086°58'1 0.8
2015-Jun-24 12:15N 20°33' W 086°59'3 3.9
2015-Jun-24 11:34N 20°31' W 086°57'0 0.0
2015-Jun-24 01:34N 20°31' W 086°57'2 1.4
2015-Jun-24 00:14N 20°32' W 086°59'0 0.6
2015-Jun-23 23:34N 20°32' W 086°59'0 0.2
2015-Jun-23 22:16N 20°32' W 086°59'2 0.8
2015-Jun-23 19:27N 20°31' W 086°57'0 0.0
2015-Jun-23 19:00N 20°31' W 086°57'0 0.0
2015-Jun-22 18:12N 20°31' W 086°57'0 0.1
2015-Jun-22 17:34N 20°31' W 086°57'3 2.5
2015-Jun-22 16:18N 20°33' W 086°59'3 4.4
2015-Jun-22 15:33N 20°31' W 086°57'0 0.0
2015-Jun-22 14:33N 20°31' W 086°57'0 0.1
2015-Jun-22 13:34N 20°31' W 086°57'2 1.9
2015-Jun-22 12:15N 20°32' W 086°59'2 3.6
2015-Jun-22 11:34N 20°31' W 086°57'2 0.2
2015-Jun-22 01:33N 20°32' W 086°59'1 0.9
2015-Jun-22 00:20N 20°33' W 086°59'3 3.8
2015-Jun-21 23:33N 20°31' W 086°57'0 0.1
2015-Jun-21 22:33N 20°31' W 086°57'0 0.0
2015-Jun-21 21:33N 20°31' W 086°57'1 0.7
2015-Jun-21 20:34N 20°31' W 086°58'2 1.3
2015-Jun-21 19:15N 20°32' W 086°59'2 2.4
2015-Jun-21 18:34N 20°31' W 086°58'1 0.7
2015-Jun-21 17:15N 20°31' W 086°59'0 0.6
2015-Jun-21 16:34N 20°32' W 086°59'2 1.6
2015-Jun-21 15:17N 20°33' W 086°60'3 4.5
2015-Jun-21 14:34N 20°31' W 086°57'2 1.8
2015-Jun-21 13:15N 20°33' W 086°59'3 4.0
2015-Jun-21 12:33N 20°31' W 086°57'0 0.0
2015-Jun-21 11:33N 20°31' W 086°57'1 0.1
2015-Jun-21 03:34N 20°31' W 086°58'3 2.2
2015-Jun-21 02:19N 20°33' W 086°59'3 4.4
2015-Jun-21 01:33N 20°31' W 086°57'1 1.1
2015-Jun-21 00:34N 20°31' W 086°58'1 1.1
2015-Jun-20 23:16N 20°33' W 086°59'2 3.4
2015-Jun-20 22:33N 20°31' W 086°57'0 0.0
2015-Jun-20 21:32N 20°31' W 086°57'2 1.2
2015-Jun-20 20:04N 20°32' W 086°59'2 2.2
2015-Jun-20 19:15N 20°31' W 086°57'0 0.1
2015-Jun-20 18:33N 20°31' W 086°57'  
Track history (hours):
 
Tides and Currents Weather Stations Pressure Air Temp Water Temp Dewpoint Dewpoint Depression Visibility Wind Speed Wind Dir Waves Ship Positions

Mexico V

Last reported at 2015-Jun-30 17:33 UTC. Time now 2015-Jul-01 06:33 UTC.
Position N 20°32' W 086°58'.

Length 40 m; draft 1.5 m.

Type: Ship. MMSI: 345110005.

Date/timePositionNaut miles runAvg speedWind from/ knotsBaromVisibWave heightAir tempDewpointWater temp
2015-Jun-30 17:33N 20°32' W 086°58'3 0.6
2015-Jun-30 12:33N 20°29' W 086°59'2 2.3
2015-Jun-30 11:33N 20°31' W 086°57'0 0.0
2015-Jun-29 21:33N 20°31' W 086°57'3 2.8
2015-Jun-29 20:34N 20°33' W 086°59'1 0.9
2015-Jun-29 19:20N 20°34' W 086°60'1 0.7
2015-Jun-29 18:33N 20°33' W 086°60'0 0.4
2015-Jun-29 17:22N 20°33' W 086°59'1 1.2
2015-Jun-29 16:34N 20°34' W 086°60'4 1.4
2015-Jun-29 13:33N 20°30' W 086°57'0 0.0
2015-Jun-29 12:33N 20°30' W 086°57'0 0.3
2015-Jun-29 11:33N 20°31' W 086°57'0 0.0
2015-Jun-29 04:08N 20°31' W 086°57'3 4.8
2015-Jun-29 03:33N 20°33' W 086°59'1 0.7
2015-Jun-29 02:11N 20°34' W 086°60'4 5.9
2015-Jun-29 01:33N 20°31' W 086°57'2 1.9
2015-Jun-29 00:34N 20°32' W 086°58'1 0.9
2015-Jun-28 23:18N 20°33' W 086°59'2 2.1
2015-Jun-28 22:34N 20°32' W 086°58'4 3.0
2015-Jun-28 21:22N 20°34' W 087°01'5 6.0
2015-Jun-28 20:33N 20°31' W 086°57'0 0.0
2015-Jun-28 18:23N 20°31' W 086°57'3 3.3
2015-Jun-28 17:34N 20°33' W 086°59'0 0.4
2015-Jun-28 16:18N 20°33' W 086°59'3 4.2
2015-Jun-28 15:33N 20°31' W 086°57'0 0.0
2015-Jun-28 14:33N 20°31' W 086°57'0 0.1
2015-Jun-28 13:34N 20°31' W 086°57'3 2.5
2015-Jun-28 12:19N 20°33' W 086°59'3 4.2
2015-Jun-28 11:33N 20°31' W 086°57'1 0.1
2015-Jun-28 01:33N 20°31' W 086°58'2 1.9
2015-Jun-28 00:20N 20°33' W 086°60'3 4.0
2015-Jun-27 23:33N 20°31' W 086°57'0 0.4
2015-Jun-27 22:33N 20°30' W 086°57'0 0.0
2015-Jun-27 19:33N 20°30' W 086°57'4 1.9
2015-Jun-27 17:26N 20°34' W 086°60'1 1.4
2015-Jun-27 16:34N 20°33' W 086°59'1 0.6
2015-Jun-27 15:19N 20°34' W 086°59'4 4.7
2015-Jun-27 14:33N 20°31' W 086°57'0 0.1
2015-Jun-27 13:33N 20°31' W 086°57'0 0.2
2015-Jun-27 12:33N 20°31' W 086°57'2 0.2
2015-Jun-27 03:33N 20°32' W 086°58'2 1.5
2015-Jun-27 02:17N 20°33' W 086°59'4 4.8
2015-Jun-27 01:33N 20°31' W 086°57'0 0.1
2015-Jun-27 00:33N 20°31' W 086°57'0 0.0
2015-Jun-26 23:33N 20°31' W 086°57'1 0.5
2015-Jun-26 22:33N 20°31' W 086°57'1 1.0
2015-Jun-26 21:09N 20°32' W 086°58'2 3.2
2015-Jun-26 20:33N 20°31' W 086°57'1 1.4
2015-Jun-26 19:34N 20°32' W 086°58'1 0.8
2015-Jun-26 18:18N 20°32' W 086°59'2 3.2
2015-Jun-26 17:33N 20°31' W 086°57'0 0.0
2015-Jun-26 15:33N 20°31' W 086°57'0 0.1
2015-Jun-26 14:33N 20°31' W 086°57'0 0.2
2015-Jun-26 13:34N 20°31' W 086°57'2 1.4
2015-Jun-26 12:13N 20°32' W 086°59'2 3.1
2015-Jun-26 11:33N 20°31' W 086°57'0 0.0
2015-Jun-26 00:20N 20°31' W 086°57'2 2.6
2015-Jun-25 23:34N 20°32' W 086°59'0 0.3
2015-Jun-25 22:16N 20°32' W 086°59'2 2.2
2015-Jun-25 21:15N 20°31' W 086°57'0 0.1
2015-Jun-25 20:33N 20°31' W 086°57'0 0.0
2015-Jun-25 19:33N 20°31' W 086°57'0 0.3
2015-Jun-25 18:34N 20°31' W 086°57'2 1.2
2015-Jun-25 17:12N 20°32' W 086°58'0 0.3
2015-Jun-25 16:33N 20°32' W 086°58'1 0.5
2015-Jun-25 15:13N 20°33' W 086°59'1 1.1
2015-Jun-25 14:33N 20°32' W 086°58'0 0.2
2015-Jun-25 13:14N 20°32' W 086°59'2 2.9
2015-Jun-25 12:34N 20°31' W 086°57'2 1.4
2015-Jun-25 11:10N 20°32' W 086°58'2 3.2
2015-Jun-25 10:33N 20°31' W 086°57'2 0.3
2015-Jun-25 03:34N 20°32' W 086°58'1 1.0
2015-Jun-25 02:18N 20°33' W 086°59'3 4.1
2015-Jun-25 01:33N 20°31' W 086°57'2 1.9
2015-Jun-25 00:33N 20°32' W 086°58'0 0.3
2015-Jun-24 23:18N 20°33' W 086°59'2 3.1
2015-Jun-24 22:33N 20°31' W 086°57'0 0.0
2015-Jun-24 21:33N 20°31' W 086°57'0 0.0
2015-Jun-24 18:17N 20°31' W 086°57'1 0.8
2015-Jun-24 17:34N 20°31' W 086°58'1 1.0
2015-Jun-24 16:13N 20°32' W 086°58'2 1.9
2015-Jun-24 15:10N 20°31' W 086°57'0 0.1
2015-Jun-24 14:33N 20°31' W 086°57'2 1.6
2015-Jun-24 13:33N 20°32' W 086°58'1 0.8
2015-Jun-24 12:15N 20°33' W 086°59'3 3.9
2015-Jun-24 11:34N 20°31' W 086°57'0 0.0
2015-Jun-24 01:34N 20°31' W 086°57'2 1.4
2015-Jun-24 00:14N 20°32' W 086°59'0 0.6
2015-Jun-23 23:34N 20°32' W 086°59'0 0.2
2015-Jun-23 22:16N 20°32' W 086°59'2 0.8
2015-Jun-23 19:27N 20°31' W 086°57'0 0.0
2015-Jun-23 19:00N 20°31' W 086°57'0 0.0
2015-Jun-22 18:12N 20°31' W 086°57'0 0.1
2015-Jun-22 17:34N 20°31' W 086°57'3 2.5
2015-Jun-22 16:18N 20°33' W 086°59'3 4.4
2015-Jun-22 15:33N 20°31' W 086°57'0 0.0
2015-Jun-22 14:33N 20°31' W 086°57'0 0.1
2015-Jun-22 13:34N 20°31' W 086°57'2 1.9
2015-Jun-22 12:15N 20°32' W 086°59'2 3.6
2015-Jun-22 11:34N 20°31' W 086°57'2 0.2
2015-Jun-22 01:33N 20°32' W 086°59'1 0.9
2015-Jun-22 00:20N 20°33' W 086°59'3 3.8
2015-Jun-21 23:33N 20°31' W 086°57'0 0.1
2015-Jun-21 22:33N 20°31' W 086°57'0 0.0
2015-Jun-21 21:33N 20°31' W 086°57'1 0.7
2015-Jun-21 20:34N 20°31' W 086°58'2 1.3
2015-Jun-21 19:15N 20°32' W 086°59'2 2.4
2015-Jun-21 18:34N 20°31' W 086°58'1 0.7
2015-Jun-21 17:15N 20°31' W 086°59'0 0.6
2015-Jun-21 16:34N 20°32' W 086°59'2 1.6
2015-Jun-21 15:17N 20°33' W 086°60'3 4.5
2015-Jun-21 14:34N 20°31' W 086°57'2 1.8
2015-Jun-21 13:15N 20°33' W 086°59'3 4.0
2015-Jun-21 12:33N 20°31' W 086°57'0 0.0
2015-Jun-21 11:33N 20°31' W 086°57'1 0.1
2015-Jun-21 03:34N 20°31' W 086°58'3 2.2
2015-Jun-21 02:19N 20°33' W 086°59'3 4.4
2015-Jun-21 01:33N 20°31' W 086°57'1 1.1
2015-Jun-21 00:34N 20°31' W 086°58'1 1.1
2015-Jun-20 23:16N 20°33' W 086°59'2 3.4
2015-Jun-20 22:33N 20°31' W 086°57'0 0.0
2015-Jun-20 21:32N 20°31' W 086°57'2 1.2
2015-Jun-20 20:04N 20°32' W 086°59'2 2.2
2015-Jun-20 19:15N 20°31' W 086°57'0 0.1
2015-Jun-20 18:33N 20°31' W 086°57'  

Dump ship's entire track history